sensor_id;sensor_type;location;lat;lon;timestamp;P1;durP1;ratioP1;P2;durP2;ratioP2
10045;SDS011;5063;50.878;4.742;2024-01-30T00:01:39;6.30;;;4.83;;
10045;SDS011;5063;50.878;4.742;2024-01-30T00:04:05;5.97;;;4.23;;
10045;SDS011;5063;50.878;4.742;2024-01-30T00:06:31;8.37;;;5.13;;
10045;SDS011;5063;50.878;4.742;2024-01-30T00:08:57;7.40;;;3.90;;
10045;SDS011;5063;50.878;4.742;2024-01-30T00:11:22;5.67;;;4.53;;
10045;SDS011;5063;50.878;4.742;2024-01-30T00:13:51;5.00;;;4.30;;
10045;SDS011;5063;50.878;4.742;2024-01-30T00:16:20;5.27;;;4.30;;
10045;SDS011;5063;50.878;4.742;2024-01-30T00:18:47;6.27;;;3.90;;
10045;SDS011;5063;50.878;4.742;2024-01-30T00:21:13;6.17;;;4.33;;
10045;SDS011;5063;50.878;4.742;2024-01-30T00:23:39;5.73;;;4.20;;
10045;SDS011;5063;50.878;4.742;2024-01-30T00:26:04;4.90;;;4.30;;
10045;SDS011;5063;50.878;4.742;2024-01-30T00:28:31;6.47;;;4.67;;
10045;SDS011;5063;50.878;4.742;2024-01-30T00:30:56;6.17;;;4.40;;
10045;SDS011;5063;50.878;4.742;2024-01-30T00:33:22;6.87;;;3.97;;
10045;SDS011;5063;50.878;4.742;2024-01-30T00:35:48;5.33;;;4.50;;
10045;SDS011;5063;50.878;4.742;2024-01-30T00:38:14;4.63;;;4.13;;
10045;SDS011;5063;50.878;4.742;2024-01-30T00:40:39;10.23;;;4.60;;
10045;SDS011;5063;50.878;4.742;2024-01-30T00:43:05;5.87;;;4.67;;
10045;SDS011;5063;50.878;4.742;2024-01-30T00:45:31;7.23;;;4.23;;
10045;SDS011;5063;50.878;4.742;2024-01-30T00:47:56;5.00;;;4.50;;
10045;SDS011;5063;50.878;4.742;2024-01-30T00:50:22;6.93;;;4.90;;
10045;SDS011;5063;50.878;4.742;2024-01-30T00:52:48;6.03;;;4.50;;
10045;SDS011;5063;50.878;4.742;2024-01-30T00:55:14;7.67;;;5.00;;
10045;SDS011;5063;50.878;4.742;2024-01-30T00:57:40;5.33;;;4.83;;
10045;SDS011;5063;50.878;4.742;2024-01-30T01:00:06;5.30;;;4.27;;
10045;SDS011;5063;50.878;4.742;2024-01-30T01:02:34;7.27;;;4.60;;
10045;SDS011;5063;50.878;4.742;2024-01-30T01:05:00;8.03;;;3.83;;
10045;SDS011;5063;50.878;4.742;2024-01-30T01:07:26;5.03;;;4.53;;
10045;SDS011;5063;50.878;4.742;2024-01-30T01:09:52;7.07;;;4.70;;
10045;SDS011;5063;50.878;4.742;2024-01-30T01:12:18;6.07;;;4.53;;
10045;SDS011;5063;50.878;4.742;2024-01-30T01:14:44;5.97;;;4.47;;
10045;SDS011;5063;50.878;4.742;2024-01-30T01:17:10;6.90;;;4.63;;
10045;SDS011;5063;50.878;4.742;2024-01-30T01:19:36;8.57;;;4.53;;
10045;SDS011;5063;50.878;4.742;2024-01-30T01:22:01;6.67;;;5.10;;
10045;SDS011;5063;50.878;4.742;2024-01-30T01:24:28;6.70;;;4.73;;
10045;SDS011;5063;50.878;4.742;2024-01-30T01:26:56;5.70;;;4.33;;
10045;SDS011;5063;50.878;4.742;2024-01-30T01:29:23;6.60;;;3.90;;
10045;SDS011;5063;50.878;4.742;2024-01-30T01:31:53;9.17;;;5.70;;
10045;SDS011;5063;50.878;4.742;2024-01-30T01:34:25;5.87;;;4.53;;
10045;SDS011;5063;50.878;4.742;2024-01-30T01:36:51;7.60;;;4.60;;
10045;SDS011;5063;50.878;4.742;2024-01-30T01:39:20;7.83;;;5.10;;
10045;SDS011;5063;50.878;4.742;2024-01-30T01:41:47;9.83;;;5.03;;
10045;SDS011;5063;50.878;4.742;2024-01-30T01:44:13;7.90;;;4.47;;
10045;SDS011;5063;50.878;4.742;2024-01-30T01:46:39;8.10;;;5.40;;
10045;SDS011;5063;50.878;4.742;2024-01-30T01:49:05;8.20;;;4.87;;
10045;SDS011;5063;50.878;4.742;2024-01-30T01:51:33;5.10;;;4.30;;
10045;SDS011;5063;50.878;4.742;2024-01-30T01:54:01;6.00;;;4.23;;
10045;SDS011;5063;50.878;4.742;2024-01-30T01:56:30;5.90;;;4.70;;
10045;SDS011;5063;50.878;4.742;2024-01-30T01:58:59;7.50;;;4.17;;
10045;SDS011;5063;50.878;4.742;2024-01-30T02:01:29;4.57;;;4.00;;
10045;SDS011;5063;50.878;4.742;2024-01-30T02:03:58;6.50;;;4.47;;
10045;SDS011;5063;50.878;4.742;2024-01-30T02:06:24;6.43;;;4.63;;
10045;SDS011;5063;50.878;4.742;2024-01-30T02:08:50;6.93;;;4.10;;
10045;SDS011;5063;50.878;4.742;2024-01-30T02:11:15;6.50;;;4.03;;
10045;SDS011;5063;50.878;4.742;2024-01-30T02:13:42;6.77;;;4.40;;
10045;SDS011;5063;50.878;4.742;2024-01-30T02:16:08;6.10;;;3.87;;
10045;SDS011;5063;50.878;4.742;2024-01-30T02:18:33;5.07;;;3.90;;
10045;SDS011;5063;50.878;4.742;2024-01-30T02:20:59;10.47;;;4.63;;
10045;SDS011;5063;50.878;4.742;2024-01-30T02:23:29;7.37;;;4.30;;
10045;SDS011;5063;50.878;4.742;2024-01-30T02:25:58;6.03;;;3.80;;
10045;SDS011;5063;50.878;4.742;2024-01-30T02:28:23;9.10;;;4.13;;
10045;SDS011;5063;50.878;4.742;2024-01-30T02:30:49;7.30;;;3.87;;
10045;SDS011;5063;50.878;4.742;2024-01-30T02:33:15;7.57;;;4.37;;
10045;SDS011;5063;50.878;4.742;2024-01-30T02:35:41;5.20;;;4.00;;
10045;SDS011;5063;50.878;4.742;2024-01-30T02:38:06;6.23;;;4.50;;
10045;SDS011;5063;50.878;4.742;2024-01-30T02:40:32;9.13;;;4.07;;
10045;SDS011;5063;50.878;4.742;2024-01-30T02:42:58;5.93;;;4.23;;
10045;SDS011;5063;50.878;4.742;2024-01-30T02:45:25;6.20;;;3.93;;
10045;SDS011;5063;50.878;4.742;2024-01-30T02:47:51;5.57;;;3.50;;
10045;SDS011;5063;50.878;4.742;2024-01-30T02:50:17;5.03;;;4.17;;
10045;SDS011;5063;50.878;4.742;2024-01-30T02:52:43;7.33;;;4.37;;
10045;SDS011;5063;50.878;4.742;2024-01-30T02:55:11;8.53;;;4.77;;
10045;SDS011;5063;50.878;4.742;2024-01-30T02:57:40;8.43;;;5.13;;
10045;SDS011;5063;50.878;4.742;2024-01-30T03:00:06;7.33;;;4.90;;
10045;SDS011;5063;50.878;4.742;2024-01-30T03:02:34;9.07;;;5.00;;
10045;SDS011;5063;50.878;4.742;2024-01-30T03:05:01;6.87;;;4.63;;
10045;SDS011;5063;50.878;4.742;2024-01-30T03:07:26;6.20;;;4.50;;
10045;SDS011;5063;50.878;4.742;2024-01-30T03:09:52;7.10;;;4.90;;
10045;SDS011;5063;50.878;4.742;2024-01-30T03:12:20;7.33;;;4.77;;
10045;SDS011;5063;50.878;4.742;2024-01-30T03:14:46;6.07;;;4.27;;
10045;SDS011;5063;50.878;4.742;2024-01-30T03:17:12;6.53;;;4.87;;
10045;SDS011;5063;50.878;4.742;2024-01-30T03:19:38;6.73;;;4.40;;
10045;SDS011;5063;50.878;4.742;2024-01-30T03:22:04;7.27;;;4.70;;
10045;SDS011;5063;50.878;4.742;2024-01-30T03:24:30;5.27;;;3.83;;
10045;SDS011;5063;50.878;4.742;2024-01-30T03:26:55;5.63;;;4.13;;
10045;SDS011;5063;50.878;4.742;2024-01-30T03:29:21;4.90;;;4.40;;
10045;SDS011;5063;50.878;4.742;2024-01-30T03:31:47;5.77;;;4.17;;
10045;SDS011;5063;50.878;4.742;2024-01-30T03:34:13;5.40;;;4.10;;
10045;SDS011;5063;50.878;4.742;2024-01-30T03:36:38;8.27;;;4.00;;
10045;SDS011;5063;50.878;4.742;2024-01-30T03:39:04;7.50;;;4.73;;
10045;SDS011;5063;50.878;4.742;2024-01-30T03:41:31;4.67;;;4.07;;
10045;SDS011;5063;50.878;4.742;2024-01-30T03:43:57;5.33;;;4.10;;
10045;SDS011;5063;50.878;4.742;2024-01-30T03:46:22;4.93;;;3.97;;
10045;SDS011;5063;50.878;4.742;2024-01-30T03:48:49;5.57;;;4.20;;
10045;SDS011;5063;50.878;4.742;2024-01-30T03:51:15;5.77;;;3.93;;
10045;SDS011;5063;50.878;4.742;2024-01-30T03:53:44;7.80;;;4.67;;
10045;SDS011;5063;50.878;4.742;2024-01-30T03:56:11;6.03;;;4.10;;
10045;SDS011;5063;50.878;4.742;2024-01-30T03:58:38;5.60;;;4.20;;
10045;SDS011;5063;50.878;4.742;2024-01-30T04:01:04;6.63;;;4.30;;
10045;SDS011;5063;50.878;4.742;2024-01-30T04:03:30;5.27;;;3.90;;
10045;SDS011;5063;50.878;4.742;2024-01-30T04:05:56;5.07;;;4.23;;
10045;SDS011;5063;50.878;4.742;2024-01-30T04:08:21;4.87;;;4.00;;
10045;SDS011;5063;50.878;4.742;2024-01-30T04:10:47;4.90;;;4.30;;
10045;SDS011;5063;50.878;4.742;2024-01-30T04:13:13;5.07;;;4.03;;
10045;SDS011;5063;50.878;4.742;2024-01-30T04:15:39;6.70;;;4.87;;
10045;SDS011;5063;50.878;4.742;2024-01-30T04:18:04;5.80;;;4.53;;
10045;SDS011;5063;50.878;4.742;2024-01-30T04:20:30;8.50;;;4.30;;
10045;SDS011;5063;50.878;4.742;2024-01-30T04:22:56;6.87;;;4.33;;
10045;SDS011;5063;50.878;4.742;2024-01-30T04:25:22;7.40;;;4.30;;
10045;SDS011;5063;50.878;4.742;2024-01-30T04:27:48;8.07;;;4.70;;
10045;SDS011;5063;50.878;4.742;2024-01-30T04:30:13;5.53;;;4.37;;
10045;SDS011;5063;50.878;4.742;2024-01-30T04:32:39;6.73;;;4.00;;
10045;SDS011;5063;50.878;4.742;2024-01-30T04:35:05;7.23;;;4.10;;
10045;SDS011;5063;50.878;4.742;2024-01-30T04:37:31;5.70;;;4.00;;
10045;SDS011;5063;50.878;4.742;2024-01-30T04:39:57;6.00;;;4.13;;
10045;SDS011;5063;50.878;4.742;2024-01-30T04:42:22;6.13;;;4.30;;
10045;SDS011;5063;50.878;4.742;2024-01-30T04:44:49;6.00;;;4.50;;
10045;SDS011;5063;50.878;4.742;2024-01-30T04:47:15;6.20;;;4.30;;
10045;SDS011;5063;50.878;4.742;2024-01-30T04:49:41;5.57;;;4.37;;
10045;SDS011;5063;50.878;4.742;2024-01-30T04:52:07;4.77;;;4.13;;
10045;SDS011;5063;50.878;4.742;2024-01-30T04:54:33;5.77;;;4.10;;
10045;SDS011;5063;50.878;4.742;2024-01-30T04:57:00;6.50;;;4.30;;
10045;SDS011;5063;50.878;4.742;2024-01-30T04:59:30;7.93;;;4.67;;
10045;SDS011;5063;50.878;4.742;2024-01-30T05:01:56;6.63;;;4.43;;
10045;SDS011;5063;50.878;4.742;2024-01-30T05:04:22;5.93;;;4.33;;
10045;SDS011;5063;50.878;4.742;2024-01-30T05:06:47;7.67;;;4.43;;
10045;SDS011;5063;50.878;4.742;2024-01-30T05:09:13;4.60;;;3.70;;
10045;SDS011;5063;50.878;4.742;2024-01-30T05:11:39;6.90;;;4.13;;
10045;SDS011;5063;50.878;4.742;2024-01-30T05:14:06;6.97;;;4.20;;
10045;SDS011;5063;50.878;4.742;2024-01-30T05:16:32;6.23;;;4.40;;
10045;SDS011;5063;50.878;4.742;2024-01-30T05:18:58;5.23;;;4.07;;
10045;SDS011;5063;50.878;4.742;2024-01-30T05:21:24;5.47;;;4.10;;
10045;SDS011;5063;50.878;4.742;2024-01-30T05:23:49;6.30;;;4.73;;
10045;SDS011;5063;50.878;4.742;2024-01-30T05:26:15;6.70;;;4.70;;
10045;SDS011;5063;50.878;4.742;2024-01-30T05:28:41;5.80;;;4.47;;
10045;SDS011;5063;50.878;4.742;2024-01-30T05:31:09;4.70;;;4.17;;
10045;SDS011;5063;50.878;4.742;2024-01-30T05:33:35;5.23;;;3.73;;
10045;SDS011;5063;50.878;4.742;2024-01-30T05:36:01;8.83;;;4.47;;
10045;SDS011;5063;50.878;4.742;2024-01-30T05:38:27;6.33;;;4.67;;
10045;SDS011;5063;50.878;4.742;2024-01-30T05:40:55;11.97;;;5.07;;
10045;SDS011;5063;50.878;4.742;2024-01-30T05:43:23;11.03;;;4.73;;
10045;SDS011;5063;50.878;4.742;2024-01-30T05:45:48;7.37;;;4.60;;
10045;SDS011;5063;50.878;4.742;2024-01-30T05:48:14;6.30;;;4.40;;
10045;SDS011;5063;50.878;4.742;2024-01-30T05:50:40;4.53;;;4.13;;
10045;SDS011;5063;50.878;4.742;2024-01-30T05:53:05;5.97;;;4.27;;
10045;SDS011;5063;50.878;4.742;2024-01-30T05:55:31;5.33;;;4.63;;
10045;SDS011;5063;50.878;4.742;2024-01-30T05:57:57;7.13;;;4.30;;
10045;SDS011;5063;50.878;4.742;2024-01-30T06:00:23;6.60;;;4.70;;
10045;SDS011;5063;50.878;4.742;2024-01-30T06:02:48;7.50;;;4.40;;
10045;SDS011;5063;50.878;4.742;2024-01-30T06:05:14;6.13;;;4.53;;
10045;SDS011;5063;50.878;4.742;2024-01-30T06:07:40;8.07;;;4.70;;
10045;SDS011;5063;50.878;4.742;2024-01-30T06:10:06;5.00;;;4.10;;
10045;SDS011;5063;50.878;4.742;2024-01-30T06:12:32;7.80;;;4.83;;
10045;SDS011;5063;50.878;4.742;2024-01-30T06:14:57;7.23;;;4.97;;
10045;SDS011;5063;50.878;4.742;2024-01-30T06:17:23;6.47;;;4.53;;
10045;SDS011;5063;50.878;4.742;2024-01-30T06:19:49;7.53;;;4.63;;
10045;SDS011;5063;50.878;4.742;2024-01-30T06:22:15;6.43;;;4.70;;
10045;SDS011;5063;50.878;4.742;2024-01-30T06:24:41;6.70;;;5.00;;
10045;SDS011;5063;50.878;4.742;2024-01-30T06:27:10;6.57;;;4.60;;
10045;SDS011;5063;50.878;4.742;2024-01-30T06:29:36;7.83;;;5.30;;
10045;SDS011;5063;50.878;4.742;2024-01-30T06:32:01;6.50;;;4.70;;
10045;SDS011;5063;50.878;4.742;2024-01-30T06:34:27;7.37;;;4.70;;
10045;SDS011;5063;50.878;4.742;2024-01-30T06:36:53;7.03;;;4.80;;
10045;SDS011;5063;50.878;4.742;2024-01-30T06:39:18;6.77;;;4.10;;
10045;SDS011;5063;50.878;4.742;2024-01-30T06:41:44;6.83;;;4.87;;
10045;SDS011;5063;50.878;4.742;2024-01-30T06:44:11;6.53;;;5.03;;
10045;SDS011;5063;50.878;4.742;2024-01-30T06:46:38;6.70;;;4.50;;
10045;SDS011;5063;50.878;4.742;2024-01-30T06:49:04;5.60;;;4.30;;
10045;SDS011;5063;50.878;4.742;2024-01-30T06:51:30;7.20;;;5.00;;
10045;SDS011;5063;50.878;4.742;2024-01-30T06:53:55;7.67;;;4.77;;
10045;SDS011;5063;50.878;4.742;2024-01-30T06:56:21;7.33;;;4.97;;
10045;SDS011;5063;50.878;4.742;2024-01-30T06:58:50;10.77;;;4.70;;
10045;SDS011;5063;50.878;4.742;2024-01-30T07:01:16;10.13;;;4.97;;
10045;SDS011;5063;50.878;4.742;2024-01-30T07:03:42;6.50;;;4.73;;
10045;SDS011;5063;50.878;4.742;2024-01-30T07:06:08;7.23;;;4.50;;
10045;SDS011;5063;50.878;4.742;2024-01-30T07:08:36;5.60;;;4.80;;
10045;SDS011;5063;50.878;4.742;2024-01-30T07:11:05;8.17;;;4.67;;
10045;SDS011;5063;50.878;4.742;2024-01-30T07:13:31;9.47;;;5.57;;
10045;SDS011;5063;50.878;4.742;2024-01-30T07:15:57;5.60;;;4.77;;
10045;SDS011;5063;50.878;4.742;2024-01-30T07:18:23;7.30;;;5.20;;
10045;SDS011;5063;50.878;4.742;2024-01-30T07:20:49;7.57;;;5.37;;
10045;SDS011;5063;50.878;4.742;2024-01-30T07:23:15;6.23;;;4.30;;
10045;SDS011;5063;50.878;4.742;2024-01-30T07:25:46;6.40;;;4.90;;
10045;SDS011;5063;50.878;4.742;2024-01-30T07:28:13;9.30;;;5.30;;
10045;SDS011;5063;50.878;4.742;2024-01-30T07:30:41;9.70;;;5.30;;
10045;SDS011;5063;50.878;4.742;2024-01-30T07:33:08;7.07;;;5.20;;
10045;SDS011;5063;50.878;4.742;2024-01-30T07:35:34;8.00;;;5.07;;
10045;SDS011;5063;50.878;4.742;2024-01-30T07:38:00;9.67;;;5.80;;
10045;SDS011;5063;50.878;4.742;2024-01-30T07:40:25;8.57;;;5.57;;
10045;SDS011;5063;50.878;4.742;2024-01-30T07:42:52;10.23;;;5.63;;
10045;SDS011;5063;50.878;4.742;2024-01-30T07:45:18;10.07;;;5.93;;
10045;SDS011;5063;50.878;4.742;2024-01-30T07:47:48;9.67;;;5.70;;
10045;SDS011;5063;50.878;4.742;2024-01-30T07:50:14;11.87;;;5.60;;
10045;SDS011;5063;50.878;4.742;2024-01-30T07:52:41;14.27;;;5.90;;
10045;SDS011;5063;50.878;4.742;2024-01-30T07:55:07;7.63;;;5.33;;
10045;SDS011;5063;50.878;4.742;2024-01-30T07:57:33;9.10;;;5.80;;
10045;SDS011;5063;50.878;4.742;2024-01-30T07:59:59;9.70;;;6.17;;
10045;SDS011;5063;50.878;4.742;2024-01-30T08:02:25;7.40;;;5.47;;
10045;SDS011;5063;50.878;4.742;2024-01-30T08:04:51;7.53;;;5.97;;
10045;SDS011;5063;50.878;4.742;2024-01-30T08:07:17;9.27;;;5.93;;
10045;SDS011;5063;50.878;4.742;2024-01-30T08:09:43;8.53;;;4.83;;
10045;SDS011;5063;50.878;4.742;2024-01-30T08:12:09;8.50;;;5.73;;
10045;SDS011;5063;50.878;4.742;2024-01-30T08:14:35;7.00;;;5.07;;
10045;SDS011;5063;50.878;4.742;2024-01-30T08:17:00;9.00;;;5.13;;
10045;SDS011;5063;50.878;4.742;2024-01-30T08:19:26;10.67;;;5.80;;
10045;SDS011;5063;50.878;4.742;2024-01-30T08:21:52;8.73;;;4.93;;
10045;SDS011;5063;50.878;4.742;2024-01-30T08:24:18;8.67;;;4.97;;
10045;SDS011;5063;50.878;4.742;2024-01-30T08:26:43;7.30;;;5.30;;
10045;SDS011;5063;50.878;4.742;2024-01-30T08:29:09;10.33;;;5.33;;
10045;SDS011;5063;50.878;4.742;2024-01-30T08:31:35;8.03;;;4.83;;
10045;SDS011;5063;50.878;4.742;2024-01-30T08:34:01;8.17;;;5.07;;
10045;SDS011;5063;50.878;4.742;2024-01-30T08:36:26;8.37;;;5.57;;
10045;SDS011;5063;50.878;4.742;2024-01-30T08:38:52;8.23;;;5.10;;
10045;SDS011;5063;50.878;4.742;2024-01-30T08:41:18;7.50;;;4.97;;
10045;SDS011;5063;50.878;4.742;2024-01-30T08:43:44;5.80;;;4.97;;
10045;SDS011;5063;50.878;4.742;2024-01-30T08:46:10;8.53;;;5.33;;
10045;SDS011;5063;50.878;4.742;2024-01-30T08:48:36;8.87;;;4.87;;
10045;SDS011;5063;50.878;4.742;2024-01-30T08:51:02;5.30;;;4.77;;
10045;SDS011;5063;50.878;4.742;2024-01-30T08:53:28;7.73;;;4.60;;
10045;SDS011;5063;50.878;4.742;2024-01-30T08:55:53;8.07;;;5.37;;
10045;SDS011;5063;50.878;4.742;2024-01-30T08:58:19;5.20;;;4.33;;
10045;SDS011;5063;50.878;4.742;2024-01-30T09:00:45;9.47;;;5.60;;
10045;SDS011;5063;50.878;4.742;2024-01-30T09:03:10;9.10;;;5.97;;
10045;SDS011;5063;50.878;4.742;2024-01-30T09:05:36;8.00;;;4.80;;
10045;SDS011;5063;50.878;4.742;2024-01-30T09:08:02;7.77;;;5.73;;
10045;SDS011;5063;50.878;4.742;2024-01-30T09:10:28;10.83;;;5.40;;
10045;SDS011;5063;50.878;4.742;2024-01-30T09:12:53;6.93;;;5.33;;
10045;SDS011;5063;50.878;4.742;2024-01-30T09:15:19;6.57;;;4.50;;
10045;SDS011;5063;50.878;4.742;2024-01-30T09:17:45;8.43;;;4.93;;
10045;SDS011;5063;50.878;4.742;2024-01-30T09:20:11;7.33;;;5.13;;
10045;SDS011;5063;50.878;4.742;2024-01-30T09:22:36;9.83;;;4.90;;
10045;SDS011;5063;50.878;4.742;2024-01-30T09:25:03;6.40;;;5.40;;
10045;SDS011;5063;50.878;4.742;2024-01-30T09:27:29;11.10;;;5.17;;
10045;SDS011;5063;50.878;4.742;2024-01-30T09:29:54;9.47;;;5.20;;
10045;SDS011;5063;50.878;4.742;2024-01-30T09:32:20;7.13;;;5.13;;
10045;SDS011;5063;50.878;4.742;2024-01-30T09:34:45;8.13;;;5.30;;
10045;SDS011;5063;50.878;4.742;2024-01-30T09:37:11;6.87;;;5.10;;
10045;SDS011;5063;50.878;4.742;2024-01-30T09:39:37;6.90;;;4.77;;
10045;SDS011;5063;50.878;4.742;2024-01-30T09:45:04;10.73;;;5.60;;
10045;SDS011;5063;50.878;4.742;2024-01-30T09:47:40;7.37;;;5.60;;
10045;SDS011;5063;50.878;4.742;2024-01-30T09:50:08;9.67;;;5.87;;
10045;SDS011;5063;50.878;4.742;2024-01-30T09:52:35;8.23;;;5.13;;
10045;SDS011;5063;50.878;4.742;2024-01-30T09:55:00;11.13;;;5.30;;
10045;SDS011;5063;50.878;4.742;2024-01-30T09:57:26;10.23;;;5.67;;
10045;SDS011;5063;50.878;4.742;2024-01-30T09:59:52;8.07;;;5.90;;
10045;SDS011;5063;50.878;4.742;2024-01-30T10:02:19;8.67;;;5.30;;
10045;SDS011;5063;50.878;4.742;2024-01-30T10:04:48;13.40;;;6.23;;
10045;SDS011;5063;50.878;4.742;2024-01-30T10:07:15;7.80;;;5.97;;
10045;SDS011;5063;50.878;4.742;2024-01-30T10:09:42;8.77;;;6.17;;
10045;SDS011;5063;50.878;4.742;2024-01-30T10:12:08;8.73;;;6.23;;
10045;SDS011;5063;50.878;4.742;2024-01-30T10:14:37;10.40;;;6.60;;
10045;SDS011;5063;50.878;4.742;2024-01-30T10:17:09;11.13;;;6.37;;
10045;SDS011;5063;50.878;4.742;2024-01-30T10:19:36;7.50;;;5.73;;
10045;SDS011;5063;50.878;4.742;2024-01-30T10:22:03;9.37;;;6.67;;
10045;SDS011;5063;50.878;4.742;2024-01-30T10:24:29;9.07;;;6.53;;
10045;SDS011;5063;50.878;4.742;2024-01-30T10:26:55;8.53;;;5.77;;
10045;SDS011;5063;50.878;4.742;2024-01-30T10:29:21;11.97;;;6.77;;
10045;SDS011;5063;50.878;4.742;2024-01-30T10:34:25;12.77;;;6.63;;
10045;SDS011;5063;50.878;4.742;2024-01-30T10:36:52;13.20;;;6.20;;
10045;SDS011;5063;50.878;4.742;2024-01-30T10:39:41;11.30;;;6.10;;
10045;SDS011;5063;50.878;4.742;2024-01-30T10:42:12;11.90;;;5.97;;
10045;SDS011;5063;50.878;4.742;2024-01-30T10:47:34;11.83;;;6.50;;
10045;SDS011;5063;50.878;4.742;2024-01-30T10:50:04;14.00;;;6.53;;
10045;SDS011;5063;50.878;4.742;2024-01-30T10:52:31;13.83;;;6.80;;
10045;SDS011;5063;50.878;4.742;2024-01-30T10:54:58;11.30;;;6.53;;
10045;SDS011;5063;50.878;4.742;2024-01-30T10:57:24;10.43;;;7.20;;
10045;SDS011;5063;50.878;4.742;2024-01-30T11:00:02;9.83;;;6.20;;
10045;SDS011;5063;50.878;4.742;2024-01-30T11:02:43;13.20;;;7.17;;
10045;SDS011;5063;50.878;4.742;2024-01-30T11:05:12;11.57;;;7.17;;
10045;SDS011;5063;50.878;4.742;2024-01-30T11:07:41;12.50;;;6.33;;
10045;SDS011;5063;50.878;4.742;2024-01-30T11:10:07;11.03;;;7.40;;
10045;SDS011;5063;50.878;4.742;2024-01-30T11:12:38;8.17;;;6.63;;
10045;SDS011;5063;50.878;4.742;2024-01-30T11:15:12;9.20;;;6.77;;
10045;SDS011;5063;50.878;4.742;2024-01-30T11:17:42;7.93;;;6.00;;
10045;SDS011;5063;50.878;4.742;2024-01-30T11:20:12;8.93;;;5.97;;
10045;SDS011;5063;50.878;4.742;2024-01-30T11:22:44;10.13;;;5.33;;
10045;SDS011;5063;50.878;4.742;2024-01-30T11:25:12;12.00;;;5.70;;
10045;SDS011;5063;50.878;4.742;2024-01-30T11:27:45;8.03;;;5.13;;
10045;SDS011;5063;50.878;4.742;2024-01-30T11:33:04;9.93;;;5.17;;
10045;SDS011;5063;50.878;4.742;2024-01-30T11:35:40;6.83;;;5.00;;
10045;SDS011;5063;50.878;4.742;2024-01-30T11:38:07;11.63;;;5.10;;
10045;SDS011;5063;50.878;4.742;2024-01-30T11:40:35;12.37;;;5.27;;
10045;SDS011;5063;50.878;4.742;2024-01-30T11:43:03;10.37;;;4.60;;
10045;SDS011;5063;50.878;4.742;2024-01-30T11:45:30;11.50;;;4.23;;
10045;SDS011;5063;50.878;4.742;2024-01-30T11:47:56;8.40;;;4.03;;
10045;SDS011;5063;50.878;4.742;2024-01-30T11:50:23;9.73;;;4.00;;
10045;SDS011;5063;50.878;4.742;2024-01-30T11:52:49;8.87;;;4.20;;
10045;SDS011;5063;50.878;4.742;2024-01-30T11:55:15;7.27;;;3.70;;
10045;SDS011;5063;50.878;4.742;2024-01-30T11:57:42;6.73;;;3.20;;
10045;SDS011;5063;50.878;4.742;2024-01-30T12:00:16;5.43;;;3.27;;
10045;SDS011;5063;50.878;4.742;2024-01-30T12:02:49;2.27;;;2.00;;
10045;SDS011;5063;50.878;4.742;2024-01-30T12:05:16;6.90;;;1.97;;
10045;SDS011;5063;50.878;4.742;2024-01-30T12:07:44;6.23;;;2.50;;
10045;SDS011;5063;50.878;4.742;2024-01-30T12:10:11;4.70;;;2.27;;
10045;SDS011;5063;50.878;4.742;2024-01-30T12:12:39;3.97;;;2.00;;
10045;SDS011;5063;50.878;4.742;2024-01-30T12:15:06;3.87;;;1.70;;
10045;SDS011;5063;50.878;4.742;2024-01-30T12:17:33;5.23;;;2.00;;
10045;SDS011;5063;50.878;4.742;2024-01-30T12:20:12;4.60;;;1.60;;
10045;SDS011;5063;50.878;4.742;2024-01-30T12:22:40;4.17;;;1.90;;
10045;SDS011;5063;50.878;4.742;2024-01-30T12:27:36;3.10;;;1.43;;
10045;SDS011;5063;50.878;4.742;2024-01-30T12:30:06;4.10;;;1.63;;
10045;SDS011;5063;50.878;4.742;2024-01-30T12:32:34;3.07;;;1.23;;
10045;SDS011;5063;50.878;4.742;2024-01-30T12:35:11;1.70;;;1.20;;
10045;SDS011;5063;50.878;4.742;2024-01-30T12:37:43;3.80;;;1.10;;
10045;SDS011;5063;50.878;4.742;2024-01-30T12:40:10;0.83;;;0.83;;
10045;SDS011;5063;50.878;4.742;2024-01-30T12:42:39;4.13;;;0.97;;
10045;SDS011;5063;50.878;4.742;2024-01-30T12:45:07;3.83;;;1.20;;
10045;SDS011;5063;50.878;4.742;2024-01-30T12:47:33;3.77;;;1.00;;
10045;SDS011;5063;50.878;4.742;2024-01-30T12:49:59;3.63;;;1.13;;
10045;SDS011;5063;50.878;4.742;2024-01-30T12:52:24;1.33;;;0.70;;
10045;SDS011;5063;50.878;4.742;2024-01-30T12:54:51;3.47;;;1.10;;
10045;SDS011;5063;50.878;4.742;2024-01-30T12:57:17;2.47;;;1.10;;
10045;SDS011;5063;50.878;4.742;2024-01-30T12:59:44;1.53;;;0.70;;
10045;SDS011;5063;50.878;4.742;2024-01-30T13:02:11;1.83;;;0.80;;
10045;SDS011;5063;50.878;4.742;2024-01-30T13:04:38;1.57;;;0.80;;
10045;SDS011;5063;50.878;4.742;2024-01-30T13:07:03;3.23;;;0.83;;
10045;SDS011;5063;50.878;4.742;2024-01-30T13:09:29;1.43;;;0.80;;
10045;SDS011;5063;50.878;4.742;2024-01-30T13:11:59;2.40;;;1.00;;
10045;SDS011;5063;50.878;4.742;2024-01-30T13:14:25;1.80;;;0.87;;
10045;SDS011;5063;50.878;4.742;2024-01-30T13:16:51;0.90;;;0.60;;
10045;SDS011;5063;50.878;4.742;2024-01-30T13:19:17;3.70;;;0.90;;
10045;SDS011;5063;50.878;4.742;2024-01-30T13:21:42;0.60;;;0.60;;
10045;SDS011;5063;50.878;4.742;2024-01-30T13:24:08;0.60;;;0.60;;
10045;SDS011;5063;50.878;4.742;2024-01-30T13:26:34;2.23;;;0.57;;
10045;SDS011;5063;50.878;4.742;2024-01-30T13:29:01;4.47;;;0.80;;
10045;SDS011;5063;50.878;4.742;2024-01-30T13:31:27;1.17;;;0.93;;
10045;SDS011;5063;50.878;4.742;2024-01-30T13:33:53;2.00;;;1.17;;
10045;SDS011;5063;50.878;4.742;2024-01-30T13:36:19;5.07;;;0.93;;
10045;SDS011;5063;50.878;4.742;2024-01-30T13:38:46;2.63;;;0.90;;
10045;SDS011;5063;50.878;4.742;2024-01-30T13:41:12;2.23;;;0.97;;
10045;SDS011;5063;50.878;4.742;2024-01-30T13:43:38;4.00;;;1.23;;
10045;SDS011;5063;50.878;4.742;2024-01-30T13:46:03;4.53;;;1.13;;
10045;SDS011;5063;50.878;4.742;2024-01-30T13:48:29;3.43;;;0.90;;
10045;SDS011;5063;50.878;4.742;2024-01-30T13:50:56;2.23;;;1.00;;
10045;SDS011;5063;50.878;4.742;2024-01-30T13:53:21;1.83;;;0.90;;
10045;SDS011;5063;50.878;4.742;2024-01-30T13:55:47;2.03;;;1.20;;
10045;SDS011;5063;50.878;4.742;2024-01-30T13:58:13;3.27;;;1.47;;
10045;SDS011;5063;50.878;4.742;2024-01-30T14:00:38;3.07;;;1.20;;
10045;SDS011;5063;50.878;4.742;2024-01-30T14:03:04;4.47;;;1.50;;
10045;SDS011;5063;50.878;4.742;2024-01-30T14:05:30;3.47;;;1.30;;
10045;SDS011;5063;50.878;4.742;2024-01-30T14:07:57;4.30;;;1.50;;
10045;SDS011;5063;50.878;4.742;2024-01-30T14:10:24;2.27;;;1.20;;
10045;SDS011;5063;50.878;4.742;2024-01-30T14:12:50;4.73;;;1.30;;
10045;SDS011;5063;50.878;4.742;2024-01-30T14:15:16;3.37;;;1.27;;
10045;SDS011;5063;50.878;4.742;2024-01-30T14:17:45;4.00;;;1.20;;
10045;SDS011;5063;50.878;4.742;2024-01-30T14:20:13;2.83;;;1.30;;
10045;SDS011;5063;50.878;4.742;2024-01-30T14:22:41;2.27;;;1.30;;
10045;SDS011;5063;50.878;4.742;2024-01-30T14:25:07;3.37;;;1.07;;
10045;SDS011;5063;50.878;4.742;2024-01-30T14:27:34;3.63;;;1.23;;
10045;SDS011;5063;50.878;4.742;2024-01-30T14:30:00;3.17;;;1.37;;
10045;SDS011;5063;50.878;4.742;2024-01-30T14:32:26;3.40;;;1.30;;
10045;SDS011;5063;50.878;4.742;2024-01-30T14:34:51;3.30;;;1.33;;
10045;SDS011;5063;50.878;4.742;2024-01-30T14:37:20;4.33;;;2.07;;
10045;SDS011;5063;50.878;4.742;2024-01-30T14:39:46;2.80;;;1.07;;
10045;SDS011;5063;50.878;4.742;2024-01-30T14:42:13;2.33;;;1.23;;
10045;SDS011;5063;50.878;4.742;2024-01-30T14:44:39;3.37;;;1.13;;
10045;SDS011;5063;50.878;4.742;2024-01-30T14:47:05;2.93;;;1.20;;
10045;SDS011;5063;50.878;4.742;2024-01-30T14:49:31;3.13;;;1.40;;
10045;SDS011;5063;50.878;4.742;2024-01-30T14:51:57;3.67;;;1.30;;
10045;SDS011;5063;50.878;4.742;2024-01-30T14:54:24;6.30;;;1.60;;
10045;SDS011;5063;50.878;4.742;2024-01-30T14:56:49;4.53;;;1.23;;
10045;SDS011;5063;50.878;4.742;2024-01-30T14:59:16;6.83;;;1.50;;
10045;SDS011;5063;50.878;4.742;2024-01-30T15:01:41;2.40;;;1.40;;
10045;SDS011;5063;50.878;4.742;2024-01-30T15:04:08;3.83;;;1.50;;
10045;SDS011;5063;50.878;4.742;2024-01-30T15:06:33;2.40;;;1.13;;
10045;SDS011;5063;50.878;4.742;2024-01-30T15:08:59;3.70;;;1.30;;
10045;SDS011;5063;50.878;4.742;2024-01-30T15:11:25;8.37;;;1.50;;